sensor_id;sensor_type;location;lat;lon;timestamp;P1;durP1;ratioP1;P2;durP2;ratioP2
73337;SDS011;61575;49.908;35.556;2022-07-06T00:02:48;10.18;;;7.18;;
73337;SDS011;61575;49.908;35.556;2022-07-06T00:05:50;11.63;;;7.57;;
73337;SDS011;61575;49.908;35.556;2022-07-06T00:11:54;10.25;;;7.93;;
73337;SDS011;61575;49.908;35.556;2022-07-06T00:14:56;8.95;;;7.20;;
73337;SDS011;61575;49.908;35.556;2022-07-06T00:17:58;10.50;;;7.45;;
73337;SDS011;61575;49.908;35.556;2022-07-06T00:21:00;12.07;;;7.57;;
73337;SDS011;61575;49.908;35.556;2022-07-06T00:24:02;13.07;;;8.80;;
73337;SDS011;61575;49.908;35.556;2022-07-06T00:27:04;18.10;;;10.18;;
73337;SDS011;61575;49.908;35.556;2022-07-06T00:30:06;17.27;;;10.65;;
73337;SDS011;61575;49.908;35.556;2022-07-06T00:33:09;14.10;;;9.27;;
73337;SDS011;61575;49.908;35.556;2022-07-06T00:36:10;19.83;;;10.02;;
73337;SDS011;61575;49.908;35.556;2022-07-06T00:39:13;14.93;;;10.57;;
73337;SDS011;61575;49.908;35.556;2022-07-06T00:42:14;14.25;;;9.30;;
73337;SDS011;61575;49.908;35.556;2022-07-06T00:45:17;13.85;;;9.75;;
73337;SDS011;61575;49.908;35.556;2022-07-06T00:48:20;12.32;;;8.77;;
73337;SDS011;61575;49.908;35.556;2022-07-06T00:51:25;10.50;;;8.43;;
73337;SDS011;61575;49.908;35.556;2022-07-06T00:54:30;11.27;;;7.90;;
73337;SDS011;61575;49.908;35.556;2022-07-06T00:57:33;12.48;;;8.15;;
73337;SDS011;61575;49.908;35.556;2022-07-06T01:00:36;12.15;;;9.35;;
73337;SDS011;61575;49.908;35.556;2022-07-06T01:03:38;14.10;;;8.40;;
73337;SDS011;61575;49.908;35.556;2022-07-06T01:06:40;11.98;;;8.25;;
73337;SDS011;61575;49.908;35.556;2022-07-06T01:09:42;12.65;;;8.45;;
73337;SDS011;61575;49.908;35.556;2022-07-06T01:12:45;14.88;;;9.15;;
73337;SDS011;61575;49.908;35.556;2022-07-06T01:15:49;12.07;;;8.77;;
73337;SDS011;61575;49.908;35.556;2022-07-06T01:21:53;15.43;;;9.30;;
73337;SDS011;61575;49.908;35.556;2022-07-06T01:24:55;12.93;;;8.98;;
73337;SDS011;61575;49.908;35.556;2022-07-06T01:27:57;14.48;;;8.48;;
73337;SDS011;61575;49.908;35.556;2022-07-06T01:30:59;13.77;;;9.48;;
73337;SDS011;61575;49.908;35.556;2022-07-06T01:34:01;14.32;;;9.32;;
73337;SDS011;61575;49.908;35.556;2022-07-06T01:37:03;12.70;;;9.32;;
73337;SDS011;61575;49.908;35.556;2022-07-06T01:40:06;12.57;;;9.25;;
73337;SDS011;61575;49.908;35.556;2022-07-06T01:43:10;13.15;;;10.30;;
73337;SDS011;61575;49.908;35.556;2022-07-06T01:49:14;14.50;;;10.00;;
73337;SDS011;61575;49.908;35.556;2022-07-06T01:52:16;86.20;;;14.98;;
73337;SDS011;61575;49.908;35.556;2022-07-06T01:55:18;65.40;;;13.18;;
73337;SDS011;61575;49.908;35.556;2022-07-06T01:58:20;15.52;;;10.27;;
73337;SDS011;61575;49.908;35.556;2022-07-06T02:04:25;12.97;;;9.90;;
73337;SDS011;61575;49.908;35.556;2022-07-06T02:07:27;15.70;;;10.10;;
73337;SDS011;61575;49.908;35.556;2022-07-06T02:10:29;23.33;;;11.30;;
73337;SDS011;61575;49.908;35.556;2022-07-06T02:16:34;19.27;;;10.82;;
73337;SDS011;61575;49.908;35.556;2022-07-06T02:19:36;17.75;;;11.20;;
73337;SDS011;61575;49.908;35.556;2022-07-06T02:22:38;19.20;;;10.48;;
73337;SDS011;61575;49.908;35.556;2022-07-06T02:25:41;15.20;;;10.70;;
73337;SDS011;61575;49.908;35.556;2022-07-06T02:28:44;16.42;;;11.55;;
73337;SDS011;61575;49.908;35.556;2022-07-06T02:31:47;14.93;;;11.00;;
73337;SDS011;61575;49.908;35.556;2022-07-06T02:34:50;19.20;;;11.27;;
73337;SDS011;61575;49.908;35.556;2022-07-06T02:37:53;17.48;;;10.77;;
73337;SDS011;61575;49.908;35.556;2022-07-06T02:40:55;21.50;;;12.00;;
73337;SDS011;61575;49.908;35.556;2022-07-06T02:43:57;14.45;;;11.05;;
73337;SDS011;61575;49.908;35.556;2022-07-06T02:46:59;17.77;;;12.10;;
73337;SDS011;61575;49.908;35.556;2022-07-06T02:50:01;17.90;;;11.32;;
73337;SDS011;61575;49.908;35.556;2022-07-06T02:53:03;15.38;;;11.02;;
73337;SDS011;61575;49.908;35.556;2022-07-06T02:56:06;15.68;;;11.02;;
73337;SDS011;61575;49.908;35.556;2022-07-06T02:59:09;17.50;;;10.93;;
73337;SDS011;61575;49.908;35.556;2022-07-06T03:02:16;13.65;;;10.18;;
73337;SDS011;61575;49.908;35.556;2022-07-06T03:05:19;19.55;;;11.95;;
73337;SDS011;61575;49.908;35.556;2022-07-06T03:08:21;15.70;;;11.20;;
73337;SDS011;61575;49.908;35.556;2022-07-06T03:11:24;14.15;;;10.73;;
73337;SDS011;61575;49.908;35.556;2022-07-06T03:14:26;16.52;;;10.85;;
73337;SDS011;61575;49.908;35.556;2022-07-06T03:17:28;14.40;;;11.02;;
73337;SDS011;61575;49.908;35.556;2022-07-06T03:20:31;14.50;;;10.52;;
73337;SDS011;61575;49.908;35.556;2022-07-06T03:23:33;12.90;;;10.32;;
73337;SDS011;61575;49.908;35.556;2022-07-06T03:26:36;17.08;;;10.88;;
73337;SDS011;61575;49.908;35.556;2022-07-06T03:29:38;13.80;;;9.80;;
73337;SDS011;61575;49.908;35.556;2022-07-06T03:32:40;13.88;;;10.25;;
73337;SDS011;61575;49.908;35.556;2022-07-06T03:35:43;12.77;;;10.20;;
73337;SDS011;61575;49.908;35.556;2022-07-06T03:38:46;14.57;;;10.45;;
73337;SDS011;61575;49.908;35.556;2022-07-06T03:41:48;13.02;;;10.13;;
73337;SDS011;61575;49.908;35.556;2022-07-06T03:44:53;14.85;;;11.00;;
73337;SDS011;61575;49.908;35.556;2022-07-06T03:50:57;16.17;;;11.30;;
73337;SDS011;61575;49.908;35.556;2022-07-06T03:53:59;14.32;;;9.82;;
73337;SDS011;61575;49.908;35.556;2022-07-06T03:57:01;13.27;;;10.25;;
73337;SDS011;61575;49.908;35.556;2022-07-06T04:00:04;14.95;;;10.25;;
73337;SDS011;61575;49.908;35.556;2022-07-06T04:03:14;17.33;;;10.85;;
73337;SDS011;61575;49.908;35.556;2022-07-06T04:06:21;14.68;;;10.95;;
73337;SDS011;61575;49.908;35.556;2022-07-06T04:09:24;13.45;;;10.25;;
73337;SDS011;61575;49.908;35.556;2022-07-06T04:12:27;13.15;;;10.85;;
73337;SDS011;61575;49.908;35.556;2022-07-06T04:15:29;15.52;;;11.50;;
73337;SDS011;61575;49.908;35.556;2022-07-06T04:18:31;16.08;;;12.20;;
73337;SDS011;61575;49.908;35.556;2022-07-06T04:21:33;16.95;;;12.10;;
73337;SDS011;61575;49.908;35.556;2022-07-06T04:24:35;15.85;;;11.80;;
73337;SDS011;61575;49.908;35.556;2022-07-06T04:27:37;19.20;;;13.02;;
73337;SDS011;61575;49.908;35.556;2022-07-06T04:30:40;21.55;;;13.70;;
73337;SDS011;61575;49.908;35.556;2022-07-06T04:33:46;37.92;;;15.13;;
73337;SDS011;61575;49.908;35.556;2022-07-06T04:39:50;25.83;;;13.77;;
73337;SDS011;61575;49.908;35.556;2022-07-06T04:42:52;20.25;;;12.63;;
73337;SDS011;61575;49.908;35.556;2022-07-06T04:45:55;22.98;;;12.95;;
73337;SDS011;61575;49.908;35.556;2022-07-06T04:48:57;17.50;;;11.65;;
73337;SDS011;61575;49.908;35.556;2022-07-06T04:52:04;14.38;;;11.13;;
73337;SDS011;61575;49.908;35.556;2022-07-06T04:55:07;15.68;;;11.63;;
73337;SDS011;61575;49.908;35.556;2022-07-06T04:58:10;14.63;;;10.82;;
73337;SDS011;61575;49.908;35.556;2022-07-06T05:01:12;15.77;;;10.80;;
73337;SDS011;61575;49.908;35.556;2022-07-06T05:04:15;15.70;;;10.50;;
73337;SDS011;61575;49.908;35.556;2022-07-06T05:07:21;14.23;;;10.10;;
73337;SDS011;61575;49.908;35.556;2022-07-06T05:10:24;15.40;;;10.07;;
73337;SDS011;61575;49.908;35.556;2022-07-06T05:13:28;17.85;;;10.48;;
73337;SDS011;61575;49.908;35.556;2022-07-06T05:19:33;16.35;;;9.77;;
73337;SDS011;61575;49.908;35.556;2022-07-06T05:25:47;14.18;;;10.18;;
73337;SDS011;61575;49.908;35.556;2022-07-06T05:28:49;13.88;;;10.13;;
73337;SDS011;61575;49.908;35.556;2022-07-06T05:31:54;16.50;;;9.90;;
73337;SDS011;61575;49.908;35.556;2022-07-06T05:34:57;26.45;;;10.35;;
73337;SDS011;61575;49.908;35.556;2022-07-06T05:38:19;16.58;;;9.20;;
73337;SDS011;61575;49.908;35.556;2022-07-06T05:41:23;14.30;;;9.52;;
73337;SDS011;61575;49.908;35.556;2022-07-06T05:44:33;12.50;;;8.80;;
73337;SDS011;61575;49.908;35.556;2022-07-06T05:47:35;13.32;;;9.00;;
73337;SDS011;61575;49.908;35.556;2022-07-06T05:50:56;13.55;;;8.82;;
73337;SDS011;61575;49.908;35.556;2022-07-06T05:53:58;12.50;;;8.90;;
73337;SDS011;61575;49.908;35.556;2022-07-06T05:57:01;13.88;;;9.55;;
73337;SDS011;61575;49.908;35.556;2022-07-06T06:00:06;11.50;;;8.50;;
73337;SDS011;61575;49.908;35.556;2022-07-06T06:03:16;19.85;;;8.90;;
73337;SDS011;61575;49.908;35.556;2022-07-06T06:06:20;15.38;;;9.15;;
73337;SDS011;61575;49.908;35.556;2022-07-06T06:09:22;11.48;;;8.43;;
73337;SDS011;61575;49.908;35.556;2022-07-06T06:12:26;12.40;;;9.38;;
73337;SDS011;61575;49.908;35.556;2022-07-06T06:15:28;11.88;;;9.20;;
73337;SDS011;61575;49.908;35.556;2022-07-06T06:18:30;17.02;;;9.50;;
73337;SDS011;61575;49.908;35.556;2022-07-06T06:21:39;28.60;;;9.73;;
73337;SDS011;61575;49.908;35.556;2022-07-06T06:24:41;15.57;;;9.40;;
73337;SDS011;61575;49.908;35.556;2022-07-06T06:27:43;15.60;;;8.88;;
73337;SDS011;61575;49.908;35.556;2022-07-06T06:30:45;13.05;;;9.25;;
73337;SDS011;61575;49.908;35.556;2022-07-06T06:33:47;14.00;;;8.82;;
73337;SDS011;61575;49.908;35.556;2022-07-06T06:36:49;12.40;;;8.85;;
73337;SDS011;61575;49.908;35.556;2022-07-06T06:39:51;33.53;;;10.90;;
73337;SDS011;61575;49.908;35.556;2022-07-06T06:42:53;13.02;;;9.07;;
73337;SDS011;61575;49.908;35.556;2022-07-06T06:45:55;48.53;;;12.40;;
73337;SDS011;61575;49.908;35.556;2022-07-06T06:48:57;14.32;;;8.68;;
73337;SDS011;61575;49.908;35.556;2022-07-06T06:51:59;12.13;;;9.32;;
73337;SDS011;61575;49.908;35.556;2022-07-06T06:55:22;30.83;;;10.50;;
73337;SDS011;61575;49.908;35.556;2022-07-06T06:58:24;15.57;;;10.00;;
73337;SDS011;61575;49.908;35.556;2022-07-06T07:01:27;13.55;;;8.88;;
73337;SDS011;61575;49.908;35.556;2022-07-06T07:04:31;9.95;;;8.73;;
73337;SDS011;61575;49.908;35.556;2022-07-06T07:07:33;12.63;;;8.98;;
73337;SDS011;61575;49.908;35.556;2022-07-06T07:10:35;13.05;;;9.82;;
73337;SDS011;61575;49.908;35.556;2022-07-06T07:13:37;11.07;;;8.45;;
73337;SDS011;61575;49.908;35.556;2022-07-06T07:16:39;14.73;;;9.30;;
73337;SDS011;61575;49.908;35.556;2022-07-06T07:19:44;14.55;;;9.23;;
73337;SDS011;61575;49.908;35.556;2022-07-06T07:22:46;15.60;;;9.30;;
73337;SDS011;61575;49.908;35.556;2022-07-06T07:25:48;11.27;;;9.15;;
73337;SDS011;61575;49.908;35.556;2022-07-06T07:28:51;12.15;;;8.40;;
73337;SDS011;61575;49.908;35.556;2022-07-06T07:31:53;19.15;;;8.38;;
73337;SDS011;61575;49.908;35.556;2022-07-06T07:34:55;11.23;;;8.60;;
73337;SDS011;61575;49.908;35.556;2022-07-06T07:37:57;10.95;;;8.55;;
73337;SDS011;61575;49.908;35.556;2022-07-06T07:40:59;15.07;;;9.32;;
73337;SDS011;61575;49.908;35.556;2022-07-06T07:44:01;12.13;;;8.82;;
73337;SDS011;61575;49.908;35.556;2022-07-06T07:47:03;14.77;;;8.93;;
73337;SDS011;61575;49.908;35.556;2022-07-06T07:50:05;11.25;;;8.15;;
73337;SDS011;61575;49.908;35.556;2022-07-06T07:53:08;11.27;;;8.40;;
73337;SDS011;61575;49.908;35.556;2022-07-06T07:56:11;10.30;;;9.20;;
73337;SDS011;61575;49.908;35.556;2022-07-06T07:59:13;14.60;;;9.68;;
73337;SDS011;61575;49.908;35.556;2022-07-06T08:02:16;11.45;;;8.48;;
73337;SDS011;61575;49.908;35.556;2022-07-06T08:05:18;12.15;;;8.68;;
73337;SDS011;61575;49.908;35.556;2022-07-06T08:08:20;12.35;;;8.45;;
73337;SDS011;61575;49.908;35.556;2022-07-06T08:11:23;11.85;;;8.15;;
73337;SDS011;61575;49.908;35.556;2022-07-06T08:14:25;106.45;;;15.68;;
73337;SDS011;61575;49.908;35.556;2022-07-06T08:17:27;13.27;;;8.57;;
73337;SDS011;61575;49.908;35.556;2022-07-06T08:20:29;13.48;;;9.63;;
73337;SDS011;61575;49.908;35.556;2022-07-06T08:23:32;13.18;;;10.02;;
73337;SDS011;61575;49.908;35.556;2022-07-06T08:26:36;12.70;;;8.75;;
73337;SDS011;61575;49.908;35.556;2022-07-06T08:29:38;11.73;;;9.07;;
73337;SDS011;61575;49.908;35.556;2022-07-06T08:32:42;11.98;;;8.18;;
73337;SDS011;61575;49.908;35.556;2022-07-06T08:36:04;12.85;;;8.75;;
73337;SDS011;61575;49.908;35.556;2022-07-06T08:39:06;20.27;;;9.13;;
73337;SDS011;61575;49.908;35.556;2022-07-06T08:42:09;10.38;;;7.40;;
73337;SDS011;61575;49.908;35.556;2022-07-06T08:45:12;12.15;;;7.50;;
73337;SDS011;61575;49.908;35.556;2022-07-06T08:48:15;11.95;;;8.95;;
73337;SDS011;61575;49.908;35.556;2022-07-06T08:51:17;12.73;;;9.77;;
73337;SDS011;61575;49.908;35.556;2022-07-06T08:54:28;11.45;;;8.95;;
73337;SDS011;61575;49.908;35.556;2022-07-06T08:57:30;11.40;;;9.25;;
73337;SDS011;61575;49.908;35.556;2022-07-06T09:00:32;12.32;;;8.48;;
73337;SDS011;61575;49.908;35.556;2022-07-06T09:03:35;13.55;;;8.45;;
73337;SDS011;61575;49.908;35.556;2022-07-06T09:06:37;11.75;;;8.95;;
73337;SDS011;61575;49.908;35.556;2022-07-06T09:09:44;10.73;;;8.90;;
73337;SDS011;61575;49.908;35.556;2022-07-06T09:12:47;9.93;;;8.35;;
73337;SDS011;61575;49.908;35.556;2022-07-06T09:15:49;11.02;;;7.97;;
73337;SDS011;61575;49.908;35.556;2022-07-06T09:19:07;13.75;;;10.65;;
73337;SDS011;61575;49.908;35.556;2022-07-06T09:22:09;14.85;;;10.55;;
73337;SDS011;61575;49.908;35.556;2022-07-06T09:25:12;11.90;;;8.40;;
73337;SDS011;61575;49.908;35.556;2022-07-06T09:28:15;13.73;;;10.45;;
73337;SDS011;61575;49.908;35.556;2022-07-06T09:31:17;11.88;;;8.50;;
73337;SDS011;61575;49.908;35.556;2022-07-06T09:34:20;12.00;;;8.23;;
73337;SDS011;61575;49.908;35.556;2022-07-06T09:37:22;11.88;;;9.50;;
73337;SDS011;61575;49.908;35.556;2022-07-06T09:40:27;19.05;;;8.85;;
73337;SDS011;61575;49.908;35.556;2022-07-06T09:43:32;9.68;;;7.50;;
73337;SDS011;61575;49.908;35.556;2022-07-06T09:46:41;11.00;;;8.10;;
73337;SDS011;61575;49.908;35.556;2022-07-06T09:49:44;10.70;;;6.72;;
73337;SDS011;61575;49.908;35.556;2022-07-06T09:52:54;12.40;;;6.65;;
73337;SDS011;61575;49.908;35.556;2022-07-06T09:55:57;9.05;;;6.60;;
73337;SDS011;61575;49.908;35.556;2022-07-06T09:58:59;9.50;;;7.13;;
73337;SDS011;61575;49.908;35.556;2022-07-06T10:02:04;8.70;;;6.28;;
73337;SDS011;61575;49.908;35.556;2022-07-06T10:05:08;7.82;;;6.18;;
73337;SDS011;61575;49.908;35.556;2022-07-06T10:08:10;10.00;;;6.22;;
73337;SDS011;61575;49.908;35.556;2022-07-06T10:11:12;8.60;;;5.82;;
73337;SDS011;61575;49.908;35.556;2022-07-06T10:14:26;8.88;;;6.70;;
73337;SDS011;61575;49.908;35.556;2022-07-06T10:17:33;9.90;;;7.00;;
73337;SDS011;61575;49.908;35.556;2022-07-06T10:20:36;9.68;;;6.60;;
73337;SDS011;61575;49.908;35.556;2022-07-06T10:23:40;12.80;;;7.80;;
73337;SDS011;61575;49.908;35.556;2022-07-06T10:26:42;11.43;;;9.23;;
73337;SDS011;61575;49.908;35.556;2022-07-06T10:29:44;11.07;;;8.35;;
73337;SDS011;61575;49.908;35.556;2022-07-06T10:32:47;9.93;;;7.18;;
73337;SDS011;61575;49.908;35.556;2022-07-06T10:35:54;12.35;;;8.60;;
73337;SDS011;61575;49.908;35.556;2022-07-06T10:39:03;9.85;;;7.68;;
73337;SDS011;61575;49.908;35.556;2022-07-06T10:48:49;10.63;;;7.95;;
73337;SDS011;61575;49.908;35.556;2022-07-06T10:51:51;11.18;;;8.25;;
73337;SDS011;61575;49.908;35.556;2022-07-06T10:54:55;9.93;;;7.53;;
73337;SDS011;61575;49.908;35.556;2022-07-06T10:57:59;10.10;;;8.05;;
73337;SDS011;61575;49.908;35.556;2022-07-06T11:01:02;9.70;;;7.30;;
73337;SDS011;61575;49.908;35.556;2022-07-06T11:04:08;15.23;;;7.60;;
73337;SDS011;61575;49.908;35.556;2022-07-06T11:07:12;9.13;;;7.13;;
73337;SDS011;61575;49.908;35.556;2022-07-06T11:10:15;9.15;;;7.18;;
73337;SDS011;61575;49.908;35.556;2022-07-06T11:13:27;11.05;;;7.85;;
73337;SDS011;61575;49.908;35.556;2022-07-06T11:16:30;13.43;;;8.38;;
73337;SDS011;61575;49.908;35.556;2022-07-06T11:19:38;12.32;;;7.75;;
73337;SDS011;61575;49.908;35.556;2022-07-06T11:22:49;11.30;;;7.93;;
73337;SDS011;61575;49.908;35.556;2022-07-06T11:25:52;12.27;;;8.02;;
73337;SDS011;61575;49.908;35.556;2022-07-06T11:28:56;9.60;;;7.85;;
73337;SDS011;61575;49.908;35.556;2022-07-06T11:32:00;9.50;;;7.55;;
73337;SDS011;61575;49.908;35.556;2022-07-06T11:35:05;10.63;;;7.70;;
73337;SDS011;61575;49.908;35.556;2022-07-06T11:38:26;10.13;;;7.63;;
73337;SDS011;61575;49.908;35.556;2022-07-06T11:41:28;17.45;;;9.25;;
73337;SDS011;61575;49.908;35.556;2022-07-06T11:44:30;12.63;;;7.95;;
73337;SDS011;61575;49.908;35.556;2022-07-06T11:47:33;10.45;;;7.90;;
73337;SDS011;61575;49.908;35.556;2022-07-06T11:50:35;15.35;;;8.48;;
73337;SDS011;61575;49.908;35.556;2022-07-06T11:53:41;10.80;;;8.23;;
73337;SDS011;61575;49.908;35.556;2022-07-06T11:56:46;11.45;;;8.48;;
73337;SDS011;61575;49.908;35.556;2022-07-06T12:00:05;10.63;;;7.93;;
73337;SDS011;61575;49.908;35.556;2022-07-06T12:03:18;9.43;;;8.10;;
73337;SDS011;61575;49.908;35.556;2022-07-06T12:06:27;10.77;;;8.45;;
73337;SDS011;61575;49.908;35.556;2022-07-06T12:09:31;10.10;;;8.13;;
73337;SDS011;61575;49.908;35.556;2022-07-06T12:12:39;12.45;;;8.32;;
73337;SDS011;61575;49.908;35.556;2022-07-06T12:15:41;9.90;;;7.90;;
73337;SDS011;61575;49.908;35.556;2022-07-06T12:18:44;9.73;;;8.52;;
73337;SDS011;61575;49.908;35.556;2022-07-06T12:21:49;11.82;;;8.45;;
73337;SDS011;61575;49.908;35.556;2022-07-06T12:24:53;10.55;;;8.02;;
73337;SDS011;61575;49.908;35.556;2022-07-06T12:27:56;11.73;;;9.10;;
73337;SDS011;61575;49.908;35.556;2022-07-06T12:31:00;13.48;;;8.10;;
73337;SDS011;61575;49.908;35.556;2022-07-06T12:34:03;10.00;;;8.10;;
73337;SDS011;61575;49.908;35.556;2022-07-06T12:37:07;12.13;;;8.40;;
73337;SDS011;61575;49.908;35.556;2022-07-06T12:40:13;10.80;;;8.05;;
73337;SDS011;61575;49.908;35.556;2022-07-06T12:46:42;11.07;;;8.10;;
73337;SDS011;61575;49.908;35.556;2022-07-06T12:49:44;10.10;;;7.93;;
73337;SDS011;61575;49.908;35.556;2022-07-06T12:52:46;11.13;;;7.68;;
73337;SDS011;61575;49.908;35.556;2022-07-06T12:55:48;12.73;;;8.73;;
73337;SDS011;61575;49.908;35.556;2022-07-06T12:58:59;11.73;;;7.97;;
73337;SDS011;61575;49.908;35.556;2022-07-06T13:02:02;10.95;;;8.00;;
73337;SDS011;61575;49.908;35.556;2022-07-06T13:05:09;10.80;;;8.20;;
73337;SDS011;61575;49.908;35.556;2022-07-06T13:08:12;10.80;;;8.07;;
73337;SDS011;61575;49.908;35.556;2022-07-06T13:11:14;13.98;;;7.88;;
73337;SDS011;61575;49.908;35.556;2022-07-06T13:14:16;9.45;;;8.05;;
73337;SDS011;61575;49.908;35.556;2022-07-06T13:17:19;10.70;;;7.53;;
73337;SDS011;61575;49.908;35.556;2022-07-06T13:20:21;11.05;;;7.90;;
73337;SDS011;61575;49.908;35.556;2022-07-06T13:23:23;10.57;;;7.80;;
73337;SDS011;61575;49.908;35.556;2022-07-06T13:26:26;11.25;;;8.23;;
73337;SDS011;61575;49.908;35.556;2022-07-06T13:29:28;9.75;;;7.35;;
73337;SDS011;61575;49.908;35.556;2022-07-06T13:32:30;10.13;;;7.80;;
73337;SDS011;61575;49.908;35.556;2022-07-06T13:35:32;10.82;;;7.57;;
73337;SDS011;61575;49.908;35.556;2022-07-06T13:38:34;9.00;;;7.80;;
73337;SDS011;61575;49.908;35.556;2022-07-06T13:41:36;8.32;;;7.45;;
73337;SDS011;61575;49.908;35.556;2022-07-06T13:44:38;9.15;;;7.63;;
73337;SDS011;61575;49.908;35.556;2022-07-06T13:47:50;10.80;;;7.40;;
73337;SDS011;61575;49.908;35.556;2022-07-06T13:50:52;13.98;;;7.90;;
73337;SDS011;61575;49.908;35.556;2022-07-06T13:53:54;11.07;;;7.30;;
73337;SDS011;61575;49.908;35.556;2022-07-06T13:56:56;8.65;;;7.32;;
73337;SDS011;61575;49.908;35.556;2022-07-06T13:59:58;12.40;;;7.43;;
73337;SDS011;61575;49.908;35.556;2022-07-06T14:03:00;35.08;;;9.40;;
73337;SDS011;61575;49.908;35.556;2022-07-06T14:06:03;12.20;;;7.78;;
73337;SDS011;61575;49.908;35.556;2022-07-06T14:09:06;12.48;;;7.60;;
73337;SDS011;61575;49.908;35.556;2022-07-06T14:12:08;11.60;;;8.07;;
73337;SDS011;61575;49.908;35.556;2022-07-06T14:15:10;22.42;;;8.90;;
73337;SDS011;61575;49.908;35.556;2022-07-06T14:18:13;11.25;;;7.53;;
73337;SDS011;61575;49.908;35.556;2022-07-06T14:21:16;9.75;;;7.45;;
73337;SDS011;61575;49.908;35.556;2022-07-06T14:24:18;11.70;;;7.68;;
73337;SDS011;61575;49.908;35.556;2022-07-06T14:27:20;13.27;;;7.20;;
73337;SDS011;61575;49.908;35.556;2022-07-06T14:30:22;12.07;;;7.55;;
73337;SDS011;61575;49.908;35.556;2022-07-06T14:33:25;16.15;;;7.68;;
73337;SDS011;61575;49.908;35.556;2022-07-06T14:36:27;8.50;;;7.10;;
73337;SDS011;61575;49.908;35.556;2022-07-06T14:39:29;9.13;;;6.95;;
73337;SDS011;61575;49.908;35.556;2022-07-06T14:42:31;15.50;;;7.82;;
73337;SDS011;61575;49.908;35.556;2022-07-06T14:45:33;12.13;;;7.80;;
73337;SDS011;61575;49.908;35.556;2022-07-06T14:48:36;9.93;;;7.57;;
73337;SDS011;61575;49.908;35.556;2022-07-06T14:51:38;8.38;;;7.40;;
73337;SDS011;61575;49.908;35.556;2022-07-06T14:54:40;14.48;;;8.30;;
73337;SDS011;61575;49.908;35.556;2022-07-06T14:57:42;10.60;;;7.82;;
73337;SDS011;61575;49.908;35.556;2022-07-06T15:00:44;12.00;;;7.50;;
73337;SDS011;61575;49.908;35.556;2022-07-06T15:03:47;10.00;;;8.25;;
73337;SDS011;61575;49.908;35.556;2022-07-06T15:06:49;10.85;;;7.80;;
73337;SDS011;61575;49.908;35.556;2022-07-06T15:09:56;14.45;;;7.97;;
73337;SDS011;61575;49.908;35.556;2022-07-06T15:12:58;13.07;;;7.68;;
73337;SDS011;61575;49.908;35.556;2022-07-06T15:16:00;10.82;;;8.20;;
73337;SDS011;61575;49.908;35.556;2022-07-06T15:19:01;10.25;;;8.20;;
73337;SDS011;61575;49.908;35.556;2022-07-06T15:22:03;9.43;;;7.70;;
73337;SDS011;61575;49.908;35.556;2022-07-06T15:25:05;11.10;;;7.53;;
73337;SDS011;61575;49.908;35.556;2022-07-06T15:28:08;9.20;;;7.95;;
73337;SDS011;61575;49.908;35.556;2022-07-06T15:31:10;10.85;;;7.88;;
73337;SDS011;61575;49.908;35.556;2022-07-06T15:34:11;10.45;;;7.88;;
73337;SDS011;61575;49.908;35.556;2022-07-06T15:37:14;11.10;;;7.97;;
73337;SDS011;61575;49.908;35.556;2022-07-06T15:40:16;29.63;;;9.07;;
73337;SDS011;61575;49.908;35.556;2022-07-06T15:43:23;14.13;;;8.45;;
73337;SDS011;61575;49.908;35.556;2022-07-06T15:46:26;15.38;;;7.40;;
73337;SDS011;61575;49.908;35.556;2022-07-06T15:49:28;12.38;;;7.65;;
73337;SDS011;61575;49.908;35.556;2022-07-06T15:52:30;51.08;;;10.43;;
73337;SDS011;61575;49.908;35.556;2022-07-06T15:55:32;72.35;;;12.73;;
73337;SDS011;61575;49.908;35.556;2022-07-06T15:58:34;13.73;;;8.02;;
73337;SDS011;61575;49.908;35.556;2022-07-06T16:01:36;13.00;;;7.80;;
73337;SDS011;61575;49.908;35.556;2022-07-06T16:04:39;12.32;;;7.63;;
73337;SDS011;61575;49.908;35.556;2022-07-06T16:07:43;11.48;;;7.97;;
73337;SDS011;61575;49.908;35.556;2022-07-06T16:11:07;36.40;;;10.18;;
73337;SDS011;61575;49.908;35.556;2022-07-06T16:14:12;14.88;;;7.45;;
73337;SDS011;61575;49.908;35.556;2022-07-06T16:17:13;8.65;;;7.45;;
73337;SDS011;61575;49.908;35.556;2022-07-06T16:20:15;32.25;;;8.50;;
73337;SDS011;61575;49.908;35.556;2022-07-06T16:23:17;12.07;;;7.60;;
73337;SDS011;61575;49.908;35.556;2022-07-06T16:26:19;9.20;;;7.40;;
73337;SDS011;61575;49.908;35.556;2022-07-06T16:29:21;10.30;;;8.38;;
73337;SDS011;61575;49.908;35.556;2022-07-06T16:32:23;14.57;;;9.73;;
73337;SDS011;61575;49.908;35.556;2022-07-06T16:35:27;21.35;;;10.27;;
73337;SDS011;61575;49.908;35.556;2022-07-06T16:38:30;15.48;;;9.48;;
73337;SDS011;61575;49.908;35.556;2022-07-06T16:41:33;15.02;;;8.02;;
73337;SDS011;61575;49.908;35.556;2022-07-06T16:44:34;17.98;;;8.25;;
73337;SDS011;61575;49.908;35.556;2022-07-06T16:47:36;12.20;;;7.70;;
73337;SDS011;61575;49.908;35.556;2022-07-06T16:50:39;13.68;;;9.02;;
73337;SDS011;61575;49.908;35.556;2022-07-06T16:53:41;21.27;;;8.88;;
73337;SDS011;61575;49.908;35.556;2022-07-06T16:56:43;21.30;;;11.20;;
73337;SDS011;61575;49.908;35.556;2022-07-06T16:59:45;152.48;;;74.93;;
73337;SDS011;61575;49.908;35.556;2022-07-06T17:02:47;135.40;;;70.70;;
73337;SDS011;61575;49.908;35.556;2022-07-06T17:05:49;106.55;;;51.33;;
73337;SDS011;61575;49.908;35.556;2022-07-06T17:08:51;83.40;;;44.83;;
73337;SDS011;61575;49.908;35.556;2022-07-06T17:11:54;52.88;;;33.38;;
73337;SDS011;61575;49.908;35.556;2022-07-06T17:14:56;38.03;;;22.33;;
73337;SDS011;61575;49.908;35.556;2022-07-06T17:17:58;42.28;;;27.90;;
73337;SDS011;61575;49.908;35.556;2022-07-06T17:21:01;76.90;;;45.67;;
73337;SDS011;61575;49.908;35.556;2022-07-06T17:24:02;48.60;;;31.20;;
73337;SDS011;61575;49.908;35.556;2022-07-06T17:27:04;246.63;;;47.65;;
73337;SDS011;61575;49.908;35.556;2022-07-06T17:30:07;95.70;;;28.23;;
73337;SDS011;61575;49.908;35.556;2022-07-06T17:33:09;57.78;;;20.63;;
73337;SDS011;61575;49.908;35.556;2022-07-06T17:36:11;40.45;;;18.02;;
73337;SDS011;61575;49.908;35.556;2022-07-06T17:39:13;146.98;;;25.52;;
73337;SDS011;61575;49.908;35.556;2022-07-06T17:42:16;39.25;;;15.82;;
73337;SDS011;61575;49.908;35.556;2022-07-06T17:45:18;40.70;;;15.50;;
73337;SDS011;61575;49.908;35.556;2022-07-06T17:48:20;38.47;;;15.18;;
73337;SDS011;61575;49.908;35.556;2022-07-06T17:51:22;41.95;;;15.50;;
73337;SDS011;61575;49.908;35.556;2022-07-06T17:54:24;33.03;;;15.45;;
73337;SDS011;61575;49.908;35.556;2022-07-06T17:57:26;42.15;;;15.68;;
73337;SDS011;61575;49.908;35.556;2022-07-06T18:00:28;35.03;;;16.48;;
73337;SDS011;61575;49.908;35.556;2022-07-06T18:03:32;32.05;;;15.43;;
73337;SDS011;61575;49.908;35.556;2022-07-06T18:09:36;28.08;;;16.67;;
73337;SDS011;61575;49.908;35.556;2022-07-06T18:12:38;24.70;;;16.08;;
73337;SDS011;61575;49.908;35.556;2022-07-06T18:15:41;22.83;;;16.42;;
73337;SDS011;61575;49.908;35.556;2022-07-06T18:18:43;29.48;;;18.23;;
73337;SDS011;61575;49.908;35.556;2022-07-06T18:24:46;30.38;;;18.63;;
73337;SDS011;61575;49.908;35.556;2022-07-06T18:30:50;29.35;;;19.95;;
73337;SDS011;61575;49.908;35.556;2022-07-06T18:33:55;71.40;;;26.10;;
73337;SDS011;61575;49.908;35.556;2022-07-06T18:36:57;38.08;;;21.98;;